Time,TemperatureF,DewpointF,PressureIn,WindDirection,WindDirectionDegrees,WindSpeedMPH,WindSpeedGustMPH,Humidity,HourlyPrecipIn,Conditions,Clouds,dailyrainin,SoftwareType,DateUTC
2013-08-04 00:04:00,62.8,62.0,30.11,NNE,18,0.0,0.0,96,0.00,,,0.00,weatherlink.com 1.10,2013-08-04 05:04:00,
2013-08-04 00:19:00,62.5,61.0,30.11,NNE,17,0.0,0.0,96,0.00,,,0.00,weatherlink.com 1.10,2013-08-04 05:19:00,
2013-08-04 00:34:00,62.4,61.0,30.11,NNE,18,0.0,1.0,96,0.00,,,0.00,weatherlink.com 1.10,2013-08-04 05:34:00,
2013-08-04 00:50:00,62.4,61.0,30.11,NW,314,0.0,1.0,96,0.00,,,0.00,weatherlink.com 1.10,2013-08-04 05:50:00,
2013-08-04 01:05:00,62.3,61.0,30.11,NW,314,0.0,1.0,96,0.00,,,0.00,weatherlink.com 1.10,2013-08-04 06:05:00,
2013-08-04 01:20:00,62.1,61.0,30.11,NW,314,0.0,0.0,96,0.00,,,0.00,weatherlink.com 1.10,2013-08-04 06:20:00,
2013-08-04 01:34:00,61.9,61.0,30.11,NW,314,0.0,0.0,96,0.00,,,0.00,weatherlink.com 1.10,2013-08-04 06:34:00,
2013-08-04 01:50:00,61.6,61.0,30.12,NW,314,0.0,0.0,96,0.00,,,0.00,weatherlink.com 1.10,2013-08-04 06:50:00,
2013-08-04 02:05:00,61.4,61.0,30.12,NW,314,0.0,1.0,97,0.00,,,0.00,weatherlink.com 1.10,2013-08-04 07:05:00,
2013-08-04 02:19:00,61.2,60.0,30.11,ENE,70,0.0,1.0,96,0.00,,,0.00,weatherlink.com 1.10,2013-08-04 07:19:00,
2013-08-04 02:35:00,61.0,60.0,30.11,NNW,345,0.0,0.0,97,0.00,,,0.00,weatherlink.com 1.10,2013-08-04 07:35:00,
2013-08-04 02:50:00,61.0,60.0,30.11,NW,316,1.0,2.0,97,0.00,,,0.00,weatherlink.com 1.10,2013-08-04 07:50:00,
2013-08-04 03:05:00,60.9,60.0,30.10,NNE,17,0.0,1.0,96,0.00,,,0.00,weatherlink.com 1.10,2013-08-04 08:05:00,
2013-08-04 03:21:00,60.7,60.0,30.09,North,360,0.0,2.0,97,0.00,,,0.00,weatherlink.com 1.10,2013-08-04 08:21:00,
2013-08-04 03:35:00,60.7,60.0,30.09,NE,54,0.0,2.0,96,0.00,,,0.00,weatherlink.com 1.10,2013-08-04 08:35:00,
2013-08-04 03:51:00,60.2,59.0,30.09,NW,322,0.0,1.0,96,0.00,,,0.00,weatherlink.com 1.10,2013-08-04 08:51:00,
2013-08-04 04:05:00,59.7,59.0,30.10,NW,322,0.0,1.0,96,0.00,,,0.00,weatherlink.com 1.10,2013-08-04 09:05:00,
2013-08-04 04:21:00,59.5,59.0,30.10,NW,322,0.0,0.0,97,0.00,,,0.00,weatherlink.com 1.10,2013-08-04 09:21:00,
2013-08-04 04:36:00,59.3,59.0,30.11,NW,322,0.0,1.0,97,0.00,,,0.00,weatherlink.com 1.10,2013-08-04 09:36:00,
2013-08-04 04:52:00,59.1,58.0,30.12,NW,322,0.0,0.0,97,0.00,,,0.00,weatherlink.com 1.10,2013-08-04 09:52:00,
2013-08-04 05:06:00,58.6,58.0,30.12,NW,322,0.0,0.0,97,0.00,,,0.00,weatherlink.com 1.10,2013-08-04 10:06:00,
2013-08-04 05:22:00,58.4,58.0,30.13,NW,321,0.0,0.0,97,0.00,,,0.00,weatherlink.com 1.10,2013-08-04 10:22:00,
2013-08-04 05:36:00,58.0,57.0,30.13,NW,322,0.0,0.0,97,0.00,,,0.00,weatherlink.com 1.10,2013-08-04 10:36:00,
2013-08-04 05:51:00,57.8,57.0,30.14,NW,321,0.0,0.0,98,0.00,,,0.00,weatherlink.com 1.10,2013-08-04 10:51:00,
2013-08-04 06:07:00,57.8,57.0,30.13,NW,321,0.0,0.0,98,0.00,,,0.00,weatherlink.com 1.10,2013-08-04 11:07:00,
2013-08-04 06:22:00,58.4,58.0,30.14,NW,321,0.0,0.0,98,0.00,,,0.00,weatherlink.com 1.10,2013-08-04 11:22:00,
2013-08-04 06:37:00,60.3,60.0,30.14,NW,322,0.0,0.0,98,0.00,,,0.00,weatherlink.com 1.10,2013-08-04 11:37:00,
2013-08-04 06:52:00,61.6,61.0,30.13,NW,323,0.0,1.0,96,0.00,,,0.00,weatherlink.com 1.10,2013-08-04 11:52:00,
2013-08-04 07:07:00,62.4,60.0,30.14,ENE,71,0.0,1.0,92,0.00,,,0.00,weatherlink.com 1.10,2013-08-04 12:07:00,
2013-08-04 07:21:00,62.9,60.0,30.13,NE,54,2.0,3.0,89,0.00,,,0.00,weatherlink.com 1.10,2013-08-04 12:21:00,
2013-08-04 07:37:00,63.9,61.0,30.13,ENE,72,2.0,4.0,89,0.00,,,0.00,weatherlink.com 1.10,2013-08-04 12:37:00,
2013-08-04 08:08:00,66.1,62.0,30.15,NW,305,0.0,4.0,85,0.00,,,0.00,weatherlink.com 1.10,2013-08-04 13:08:00,
2013-08-04 08:22:00,67.2,63.0,30.15,ENE,76,1.0,2.0,85,0.00,,,0.00,weatherlink.com 1.10,2013-08-04 13:22:00,
2013-08-04 08:37:00,68.5,63.0,30.16,ENE,70,2.0,3.0,82,0.00,,,0.00,weatherlink.com 1.10,2013-08-04 13:37:00,
2013-08-04 08:53:00,69.3,63.0,30.15,ENE,68,4.0,4.0,80,0.00,,,0.00,weatherlink.com 1.10,2013-08-04 13:53:00,
2013-08-04 09:07:00,69.9,63.0,30.15,ENE,72,2.0,6.0,79,0.00,,,0.00,weatherlink.com 1.10,2013-08-04 14:07:00,
2013-08-04 09:23:00,71.6,64.0,30.15,ENE,77,2.0,3.0,76,0.00,,,0.00,weatherlink.com 1.10,2013-08-04 14:23:00,
2013-08-04 09:38:00,72.6,64.0,30.15,East,89,1.0,3.0,74,0.00,,,0.00,weatherlink.com 1.10,2013-08-04 14:38:00,
2013-08-04 09:52:00,72.6,62.0,30.15,ENE,57,2.0,5.0,69,0.00,,,0.00,weatherlink.com 1.10,2013-08-04 14:52:00,
2013-08-04 10:08:00,73.5,63.0,30.16,SE,134,0.0,5.0,70,0.00,,,0.00,weatherlink.com 1.10,2013-08-04 15:08:00,
2013-08-04 10:23:00,74.5,61.0,30.16,ENE,58,5.0,6.0,63,0.00,,,0.00,weatherlink.com 1.10,2013-08-04 15:23:00,
2013-08-04 10:39:00,75.0,63.0,30.16,NE,56,2.0,2.0,66,0.00,,,0.00,weatherlink.com 1.10,2013-08-04 15:39:00,
2013-08-04 10:53:00,75.3,61.0,30.16,East,84,1.0,5.0,62,0.00,,,0.00,weatherlink.com 1.10,2013-08-04 15:53:00,
2013-08-04 11:09:00,76.9,60.0,30.16,NE,41,4.0,5.0,56,0.00,,,0.00,weatherlink.com 1.10,2013-08-04 16:09:00,
2013-08-04 11:23:00,76.3,59.0,30.16,ENE,62,1.0,6.0,56,0.00,,,0.00,weatherlink.com 1.10,2013-08-04 16:23:00,
2013-08-04 11:38:00,77.9,58.0,30.16,ENE,62,3.0,6.0,51,0.00,,,0.00,weatherlink.com 1.10,2013-08-04 16:38:00,
2013-08-04 11:54:00,78.3,60.0,30.16,SE,136,1.0,3.0,54,0.00,,,0.00,weatherlink.com 1.10,2013-08-04 16:54:00,
2013-08-04 12:08:00,79.0,62.0,30.16,SSW,205,1.0,4.0,57,0.00,,,0.00,weatherlink.com 1.10,2013-08-04 17:08:00,
2013-08-04 12:24:00,78.4,58.0,30.15,ENE,61,2.0,5.0,50,0.00,,,0.00,weatherlink.com 1.10,2013-08-04 17:24:00,
2013-08-04 12:39:00,79.5,62.0,30.14,ENE,71,0.0,3.0,56,0.00,,,0.00,weatherlink.com 1.10,2013-08-04 17:39:00,
2013-08-04 12:55:00,79.5,61.0,30.14,NNW,332,1.0,4.0,53,0.00,,,0.00,weatherlink.com 1.10,2013-08-04 17:55:00,
2013-08-04 13:10:00,81.3,61.0,30.13,SW,215,2.0,3.0,51,0.00,,,0.00,weatherlink.com 1.10,2013-08-04 18:10:00,
2013-08-04 13:24:00,80.3,60.0,30.13,ENE,61,4.0,7.0,50,0.00,,,0.00,weatherlink.com 1.10,2013-08-04 18:24:00,
2013-08-04 13:39:00,79.3,57.0,30.12,ENE,63,3.0,6.0,46,0.00,,,0.00,weatherlink.com 1.10,2013-08-04 18:39:00,
2013-08-04 13:55:00,81.0,56.0,30.12,WSW,243,1.0,4.0,43,0.00,,,0.00,weatherlink.com 1.10,2013-08-04 18:55:00,
2013-08-04 14:09:00,81.7,56.0,30.12,ENE,57,2.0,3.0,41,0.00,,,0.00,weatherlink.com 1.10,2013-08-04 19:09:00,
2013-08-04 14:25:00,81.9,57.0,30.12,WSW,243,0.0,3.0,43,0.00,,,0.00,weatherlink.com 1.10,2013-08-04 19:25:00,
2013-08-04 14:40:00,81.7,58.0,30.11,SW,233,1.0,4.0,44,0.00,,,0.00,weatherlink.com 1.10,2013-08-04 19:40:00,
2013-08-04 14:55:00,82.8,61.0,30.11,WSW,252,0.0,5.0,48,0.00,,,0.00,weatherlink.com 1.10,2013-08-04 19:55:00,
2013-08-04 15:10:00,85.1,61.0,30.11,ENE,67,2.0,2.0,45,0.00,,,0.00,weatherlink.com 1.10,2013-08-04 20:10:00,
2013-08-04 15:25:00,82.5,59.0,30.11,WSW,248,3.0,4.0,45,0.00,,,0.00,weatherlink.com 1.10,2013-08-04 20:25:00,
2013-08-04 15:41:00,81.6,61.0,30.11,NNE,26,0.0,3.0,49,0.00,,,0.00,weatherlink.com 1.10,2013-08-04 20:41:00,
2013-08-04 15:55:00,82.4,61.0,30.10,North,356,1.0,3.0,49,0.00,,,0.00,weatherlink.com 1.10,2013-08-04 20:55:00,
2013-08-04 16:10:00,82.3,61.0,30.10,West,273,1.0,6.0,49,0.00,,,0.00,weatherlink.com 1.10,2013-08-04 21:10:00,
2013-08-04 16:26:00,82.4,61.0,30.10,NNW,334,1.0,4.0,48,0.00,,,0.00,weatherlink.com 1.10,2013-08-04 21:26:00,
2013-08-04 16:40:00,84.7,61.0,30.09,East,95,0.0,2.0,45,0.00,,,0.00,weatherlink.com 1.10,2013-08-04 21:40:00,
2013-08-04 16:56:00,83.7,60.0,30.09,WSW,238,1.0,4.0,45,0.00,,,0.00,weatherlink.com 1.10,2013-08-04 21:56:00,
2013-08-04 17:11:00,83.1,61.0,30.08,SW,228,1.0,3.0,47,0.00,,,0.00,weatherlink.com 1.10,2013-08-04 22:11:00,
2013-08-04 17:25:00,81.8,63.0,30.08,East,96,0.0,2.0,54,0.00,,,0.00,weatherlink.com 1.10,2013-08-04 22:25:00,
2013-08-04 17:41:00,80.4,62.0,30.07,ENE,60,1.0,3.0,53,0.00,,,0.00,weatherlink.com 1.10,2013-08-04 22:41:00,
2013-08-04 17:56:00,79.0,62.0,30.07,ENE,64,0.0,4.0,56,0.00,,,0.00,weatherlink.com 1.10,2013-08-04 22:56:00,
2013-08-04 18:10:00,79.7,60.0,30.07,ENE,63,1.0,1.0,52,0.00,,,0.00,weatherlink.com 1.10,2013-08-04 23:10:00,
2013-08-04 18:27:00,79.4,61.0,30.07,ENE,62,0.0,1.0,53,0.00,,,0.00,weatherlink.com 1.10,2013-08-04 23:27:00,
2013-08-04 20:57:00,69.6,63.0,30.05,ENE,62,0.0,0.0,79,0.00,,,0.00,weatherlink.com 1.10,2013-08-05 01:57:00,
2013-08-04 21:12:00,69.0,63.0,30.06,ENE,62,0.0,0.0,80,0.00,,,0.00,weatherlink.com 1.10,2013-08-05 02:12:00,
2013-08-04 21:27:00,68.2,63.0,30.07,ENE,62,0.0,0.0,83,0.00,,,0.00,weatherlink.com 1.10,2013-08-05 02:27:00,
2013-08-04 21:56:00,66.5,63.0,30.07,ENE,63,0.0,1.0,87,0.00,,,0.00,weatherlink.com 1.10,2013-08-05 02:56:00,
2013-08-04 22:12:00,65.8,63.0,30.07,ENE,62,0.0,1.0,90,0.00,,,0.00,weatherlink.com 1.10,2013-08-05 03:12:00,
2013-08-04 22:27:00,65.0,62.0,30.07,ENE,62,0.0,0.0,91,0.00,,,0.00,weatherlink.com 1.10,2013-08-05 03:27:00,
2013-08-04 22:42:00,64.5,62.0,30.07,ENE,63,0.0,0.0,92,0.00,,,0.00,weatherlink.com 1.10,2013-08-05 03:42:00,
2013-08-04 22:57:00,64.9,62.0,30.07,ENE,62,0.0,0.0,91,0.00,,,0.00,weatherlink.com 1.10,2013-08-05 03:57:00,
2013-08-04 23:12:00,64.5,62.0,30.07,ENE,62,0.0,0.0,91,0.00,,,0.00,weatherlink.com 1.10,2013-08-05 04:12:00,
2013-08-04 23:27:00,64.5,62.0,30.08,ENE,63,0.0,0.0,92,0.00,,,0.00,weatherlink.com 1.10,2013-08-05 04:27:00,
2013-08-04 23:42:00,64.3,62.0,30.07,ENE,62,0.0,0.0,91,0.00,,,0.00,weatherlink.com 1.10,2013-08-05 04:42:00,
2013-08-04 23:57:00,64.3,62.0,30.08,ENE,63,0.0,0.0,91,0.00,,,0.00,weatherlink.com 1.10,2013-08-05 04:57:00,